createdAt,value
2022-10-05T00:01:01.230Z,95873.66
2022-10-05T00:03:36.930Z,95877.31
2022-10-05T00:06:06.171Z,95878.19
2022-10-05T00:08:36.135Z,95872.47
2022-10-05T00:11:03.953Z,95872.06
2022-10-05T00:13:32.373Z,95857.13
2022-10-05T00:16:09.826Z,95860.00
2022-10-05T00:18:38.034Z,95852.34
2022-10-05T00:21:17.897Z,95837.81
2022-10-05T00:23:47.305Z,95844.06
2022-10-05T00:26:19.848Z,95842.16
2022-10-05T00:28:47.819Z,95825.22
2022-10-05T00:31:18.945Z,95825.50
2022-10-05T00:33:47.708Z,95830.28
2022-10-05T00:36:16.108Z,95829.94
2022-10-05T00:38:44.621Z,95817.78
2022-10-05T00:41:22.526Z,95816.75
2022-10-05T00:44:27.081Z,95810.16
2022-10-05T00:47:00.605Z,95804.78
2022-10-05T00:49:49.729Z,95803.09
2022-10-05T00:52:25.750Z,95806.13
2022-10-05T00:55:00.768Z,95808.13
2022-10-05T00:57:41.828Z,95812.56
2022-10-05T01:00:13.455Z,95807.00
2022-10-05T01:02:53.238Z,95811.06
2022-10-05T01:05:34.422Z,95806.19
2022-10-05T01:08:12.176Z,95803.22
2022-10-05T01:10:46.671Z,95799.75
2022-10-05T01:13:25.042Z,95792.22
2022-10-05T01:15:59.126Z,95795.41
2022-10-05T01:18:38.757Z,95787.72
2022-10-05T01:21:15.510Z,95785.91
2022-10-05T01:24:27.227Z,95782.44
2022-10-05T01:27:21.423Z,95784.22
2022-10-05T01:29:57.813Z,95782.50
2022-10-05T01:32:34.631Z,95769.75
2022-10-05T01:35:12.124Z,95770.72
2022-10-05T01:37:48.219Z,95775.50
2022-10-05T01:40:26.800Z,95776.59
2022-10-05T01:43:08.891Z,95778.94
2022-10-05T01:45:49.353Z,95766.81
2022-10-05T01:48:29.039Z,95765.41
2022-10-05T01:51:07.185Z,95764.53
2022-10-05T01:53:46.807Z,95765.97
2022-10-05T01:56:23.605Z,95768.81
2022-10-05T01:59:01.983Z,95763.16
2022-10-05T02:01:36.900Z,95762.00
2022-10-05T02:04:12.596Z,95770.94
2022-10-05T02:06:50.044Z,95765.78
2022-10-05T02:09:21.490Z,95767.16
2022-10-05T02:11:54.128Z,95765.63
2022-10-05T02:14:26.443Z,95759.63
2022-10-05T02:17:00.346Z,95756.16
2022-10-05T02:19:33.013Z,95748.78
2022-10-05T02:22:06.295Z,95747.63
2022-10-05T02:24:40.363Z,95746.38
2022-10-05T02:27:11.876Z,95737.91
2022-10-05T02:29:46.175Z,95737.00
2022-10-05T02:32:20.057Z,95737.09
2022-10-05T02:34:48.300Z,95744.19
2022-10-05T02:37:29.788Z,95730.28
2022-10-05T02:40:10.813Z,95739.56
2022-10-05T02:42:49.354Z,95740.16
2022-10-05T02:45:24.347Z,95739.41
2022-10-05T02:48:04.218Z,95734.09
2022-10-05T02:50:40.099Z,95737.00
2022-10-05T02:53:20.608Z,95725.41
2022-10-05T02:55:59.877Z,95715.63
2022-10-05T02:58:32.884Z,95717.28
2022-10-05T03:01:08.311Z,95732.22
2022-10-05T03:03:42.462Z,95732.16
2022-10-05T03:06:18.484Z,95735.78
2022-10-05T03:08:52.793Z,95737.19
2022-10-05T03:11:31.346Z,95733.72
2022-10-05T03:14:09.609Z,95740.53
2022-10-05T03:16:48.976Z,95733.03
2022-10-05T03:19:32.416Z,95733.47
2022-10-05T03:22:03.861Z,95730.03
2022-10-05T03:24:48.329Z,95739.75
2022-10-05T03:27:28.861Z,95737.34
2022-10-05T03:30:01.141Z,95740.03
2022-10-05T03:32:38.137Z,95741.13
2022-10-05T03:35:13.168Z,95739.47
2022-10-05T03:37:49.107Z,95743.00
2022-10-05T03:40:27.709Z,95742.22
2022-10-05T03:43:12.984Z,95738.50
2022-10-05T03:45:49.272Z,95743.47
2022-10-05T03:48:22.488Z,95732.97
2022-10-05T03:51:08.305Z,95726.75
2022-10-05T03:53:43.448Z,95735.84
2022-10-05T03:56:16.456Z,95737.38
2022-10-05T03:58:55.590Z,95732.59
2022-10-05T04:01:31.995Z,95730.66
2022-10-05T04:04:05.048Z,95726.84
2022-10-05T04:06:40.457Z,95727.72
2022-10-05T04:09:14.984Z,95740.03
2022-10-05T04:11:50.243Z,95742.50
2022-10-05T04:14:23.603Z,95737.97
2022-10-05T04:16:57.287Z,95727.56
2022-10-05T04:19:31.976Z,95725.88
2022-10-05T04:22:08.770Z,95723.31
2022-10-05T04:24:41.704Z,95725.25
2022-10-05T04:27:16.224Z,95724.28
2022-10-05T04:29:49.257Z,95728.34
2022-10-05T04:32:31.546Z,95724.97
2022-10-05T04:35:16.990Z,95724.38
2022-10-05T04:37:52.748Z,95728.34
2022-10-05T04:40:39.301Z,95724.19
2022-10-05T04:43:15.303Z,95727.19
2022-10-05T04:46:06.535Z,95726.03
2022-10-05T04:48:56.436Z,95733.72
2022-10-05T04:51:37.527Z,95735.88
2022-10-05T04:54:18.254Z,95734.53
2022-10-05T04:56:51.162Z,95745.94
2022-10-05T04:59:50.370Z,95746.81
2022-10-05T05:02:27.850Z,95743.97
2022-10-05T05:05:09.814Z,95740.91
2022-10-05T05:07:49.810Z,95753.09
2022-10-05T05:10:53.410Z,95750.19
2022-10-05T05:13:39.039Z,95758.13
2022-10-05T05:16:12.657Z,95750.53
2022-10-05T05:19:08.083Z,95756.00
2022-10-05T05:21:48.695Z,95758.84
2022-10-05T05:24:22.413Z,95768.13
2022-10-05T05:27:07.173Z,95763.53
2022-10-05T05:29:49.576Z,95764.13
2022-10-05T05:32:25.077Z,95767.31
2022-10-05T05:35:08.696Z,95763.09
2022-10-05T05:37:44.260Z,95767.41
2022-10-05T05:40:17.994Z,95769.53
2022-10-05T05:42:58.740Z,95767.84
2022-10-05T05:45:38.390Z,95760.75
2022-10-05T05:48:16.637Z,95763.94
2022-10-05T05:50:56.343Z,95756.09
2022-10-05T05:53:29.354Z,95768.38
2022-10-05T05:56:02.237Z,95762.56
2022-10-05T05:58:36.645Z,95761.13
2022-10-05T06:01:25.044Z,95772.00
2022-10-05T06:04:02.886Z,95772.72
2022-10-05T06:06:33.136Z,95767.78
2022-10-05T06:09:05.496Z,95778.13
2022-10-05T06:11:44.201Z,95775.09
2022-10-05T06:14:18.943Z,95769.91
2022-10-05T06:16:54.733Z,95773.50
2022-10-05T06:19:24.943Z,95769.91
2022-10-05T06:21:59.740Z,95770.00
2022-10-05T06:24:36.201Z,95761.03
2022-10-05T06:27:26.668Z,95772.69
2022-10-05T06:30:06.567Z,95772.66
2022-10-05T06:32:50.008Z,95785.59
2022-10-05T06:35:27.820Z,95785.94
2022-10-05T06:38:21.142Z,95792.13
2022-10-05T06:41:00.864Z,95789.53
2022-10-05T06:43:44.287Z,95791.19
2022-10-05T06:46:24.770Z,95792.13
2022-10-05T06:49:16.968Z,95790.53
2022-10-05T06:52:21.088Z,95793.56
2022-10-05T06:55:14.005Z,95797.97
2022-10-05T06:57:54.807Z,95799.31
2022-10-05T07:00:25.946Z,95805.94
2022-10-05T07:03:03.582Z,95809.75
2022-10-05T07:05:46.426Z,95798.28
2022-10-05T07:08:21.374Z,95801.34
2022-10-05T07:11:03.479Z,95797.41
2022-10-05T07:13:48.773Z,95810.72
2022-10-05T07:16:28.264Z,95801.66
2022-10-05T07:19:12.243Z,95813.22
2022-10-05T07:21:47.059Z,95811.25
2022-10-05T07:24:29.211Z,95808.47
2022-10-05T07:27:09.025Z,95811.06
2022-10-05T07:29:46.664Z,95826.53
2022-10-05T07:32:28.149Z,95824.34
2022-10-05T07:35:05.248Z,95830.88
2022-10-05T07:37:57.977Z,95829.91
2022-10-05T07:40:39.237Z,95830.28
2022-10-05T07:43:23.192Z,95826.72
2022-10-05T07:45:57.604Z,95833.44
2022-10-05T07:48:33.199Z,95824.31
2022-10-05T07:51:10.277Z,95839.81
2022-10-05T07:53:41.845Z,95843.19
2022-10-05T07:56:16.556Z,95837.19
2022-10-05T07:58:48.155Z,95839.56
2022-10-05T08:01:22.610Z,95841.31
2022-10-05T08:03:59.795Z,95846.63
2022-10-05T08:06:41.596Z,95841.34
2022-10-05T08:09:27.175Z,95843.06
2022-10-05T08:12:03.962Z,95846.56
2022-10-05T08:14:41.106Z,95848.06
2022-10-05T08:17:19.177Z,95858.19
2022-10-05T08:19:55.209Z,95859.06
2022-10-05T08:22:30.207Z,95853.47
2022-10-05T08:25:03.130Z,95865.03
2022-10-05T08:27:39.949Z,95864.31
2022-10-05T08:30:12.500Z,95866.44
2022-10-05T08:32:46.516Z,95869.28
2022-10-05T08:35:26.693Z,95869.16
2022-10-05T08:37:57.049Z,95865.22
2022-10-05T08:40:57.944Z,95872.78
2022-10-05T08:43:54.833Z,95873.16
2022-10-05T08:46:53.931Z,95873.06
2022-10-05T08:49:55.405Z,95875.78
2022-10-05T08:52:29.250Z,95872.94
2022-10-05T08:55:31.196Z,95880.72
2022-10-05T08:58:37.568Z,95872.81
2022-10-05T09:01:17.770Z,95873.69
2022-10-05T09:04:25.133Z,95869.66
2022-10-05T09:07:09.982Z,95864.81
2022-10-05T09:10:04.387Z,95864.00
2022-10-05T09:12:50.692Z,95863.94
2022-10-05T09:15:49.748Z,95864.25
2022-10-05T09:18:50.609Z,95867.84
2022-10-05T09:21:40.196Z,95874.91
2022-10-05T09:24:23.786Z,95865.19
2022-10-05T09:27:01.710Z,95859.75
2022-10-05T09:30:11.893Z,95868.75
2022-10-05T09:33:09.842Z,95865.94
2022-10-05T09:36:12.843Z,95869.78
2022-10-05T09:39:06.585Z,95881.41
2022-10-05T09:42:08.805Z,95870.00
2022-10-05T09:45:21.195Z,95875.31
2022-10-05T09:48:25.962Z,95876.31
2022-10-05T09:51:35.273Z,95865.88
2022-10-05T09:54:47.431Z,95867.09
2022-10-05T09:57:53.070Z,95870.25
2022-10-05T10:00:36.865Z,95868.22
2022-10-05T10:03:24.276Z,95872.69
2022-10-05T10:06:21.300Z,95868.81
2022-10-05T10:09:19.449Z,95866.56
2022-10-05T10:12:14.921Z,95861.75
2022-10-05T10:15:23.908Z,95848.03
2022-10-05T10:18:26.426Z,95853.16
2022-10-05T10:21:12.185Z,95860.13
2022-10-05T10:24:05.022Z,95863.88
2022-10-05T10:27:00.797Z,95862.94
2022-10-05T10:29:45.918Z,95859.63
2022-10-05T10:32:32.509Z,95862.00
2022-10-05T10:35:15.189Z,95870.03
2022-10-05T10:38:24.552Z,95874.47
2022-10-05T10:41:09.702Z,95860.09
2022-10-05T10:44:03.700Z,95875.34
2022-10-05T10:46:40.418Z,95865.31
2022-10-05T10:49:26.598Z,95862.94
2022-10-05T10:52:23.963Z,95860.88
2022-10-05T10:55:19.710Z,95859.28
2022-10-05T10:58:05.390Z,95855.59
2022-10-05T11:00:48.919Z,95857.34
2022-10-05T11:03:58.349Z,95853.25
2022-10-05T11:06:36.476Z,95853.06
2022-10-05T11:09:30.943Z,95852.22
2022-10-05T11:12:48.685Z,95855.13
2022-10-05T11:15:35.613Z,95837.19
2022-10-05T11:18:11.354Z,95845.31
2022-10-05T11:21:13.070Z,95840.28
2022-10-05T11:24:05.459Z,95834.97
2022-10-05T11:26:47.786Z,95839.47
2022-10-05T11:29:40.838Z,95825.16
2022-10-05T11:32:32.079Z,95818.00
2022-10-05T11:35:34.155Z,95816.53
2022-10-05T11:38:17.962Z,95822.91
2022-10-05T11:41:18.691Z,95815.59
2022-10-05T11:44:16.912Z,95814.31
2022-10-05T11:46:53.371Z,95812.78
2022-10-05T11:49:34.046Z,95807.81
2022-10-05T11:52:12.295Z,95809.28
2022-10-05T11:55:10.816Z,95796.78
2022-10-05T11:57:47.121Z,95797.41
2022-10-05T12:00:19.404Z,95789.13
2022-10-05T12:03:09.351Z,95792.28
2022-10-05T12:05:50.882Z,95785.25
2022-10-05T12:08:30.332Z,95787.72
2022-10-05T12:11:08.104Z,95787.16
2022-10-05T12:13:44.567Z,95778.56
2022-10-05T12:16:20.591Z,95779.06
2022-10-05T12:18:56.456Z,95782.22
2022-10-05T12:21:37.955Z,95772.97
2022-10-05T12:24:15.118Z,95775.06
2022-10-05T12:26:48.631Z,95766.06
2022-10-05T12:29:24.583Z,95772.44
2022-10-05T12:31:59.849Z,95758.78
2022-10-05T12:34:43.335Z,95757.94
2022-10-05T12:37:16.037Z,95757.97
2022-10-05T12:39:52.157Z,95750.94
2022-10-05T12:42:29.909Z,95757.00
2022-10-05T12:45:18.349Z,95751.19
2022-10-05T12:48:02.985Z,95745.94
2022-10-05T12:50:35.575Z,95752.47
2022-10-05T12:53:17.677Z,95746.50
2022-10-05T12:55:54.418Z,95748.97
2022-10-05T12:58:33.502Z,95751.84
2022-10-05T13:01:10.130Z,95742.94
2022-10-05T13:03:44.654Z,95744.41
2022-10-05T13:06:20.875Z,95746.19
2022-10-05T13:08:56.946Z,95745.19
2022-10-05T13:11:31.968Z,95746.47
2022-10-05T13:14:09.161Z,95741.63
2022-10-05T13:16:44.880Z,95740.63
2022-10-05T13:19:28.853Z,95750.56
2022-10-05T13:22:19.745Z,95740.88
2022-10-05T13:24:59.413Z,95750.09
2022-10-05T13:27:30.574Z,95741.44
2022-10-05T13:30:03.453Z,95738.81
2022-10-05T13:32:36.739Z,95740.13
2022-10-05T13:35:21.069Z,95742.72
2022-10-05T13:38:01.653Z,95736.69
2022-10-05T13:40:35.898Z,95738.25
2022-10-05T13:43:11.444Z,95731.19
2022-10-05T13:45:47.029Z,95734.09
2022-10-05T13:48:29.301Z,95737.22
2022-10-05T13:51:08.298Z,95737.22
2022-10-05T13:53:46.001Z,95734.66
2022-10-05T13:56:21.765Z,95735.16
2022-10-05T13:58:55.811Z,95732.53
2022-10-05T14:01:36.439Z,95734.09
2022-10-05T14:04:07.236Z,95744.56
2022-10-05T14:06:38.504Z,95743.28
2022-10-05T14:09:13.625Z,95738.31
2022-10-05T14:11:50.194Z,95734.91
2022-10-05T14:14:25.841Z,95737.78
2022-10-05T14:16:56.028Z,95734.66
2022-10-05T14:19:27.910Z,95735.94
2022-10-05T14:22:02.206Z,95728.34
2022-10-05T14:24:47.646Z,95727.56
2022-10-05T14:27:22.159Z,95726.50
2022-10-05T14:29:57.717Z,95729.66
2022-10-05T14:32:28.058Z,95728.06
2022-10-05T14:35:01.206Z,95720.50
2022-10-05T14:37:44.237Z,95729.63
2022-10-05T14:40:27.989Z,95725.97
2022-10-05T14:42:56.407Z,95728.59
2022-10-05T14:45:26.107Z,95734.09
2022-10-05T14:48:00.151Z,95728.31
2022-10-05T14:50:29.836Z,95728.31
2022-10-05T14:53:14.089Z,95725.69
2022-10-05T14:55:56.705Z,95721.75
2022-10-05T14:58:53.486Z,95735.56
2022-10-05T15:01:27.782Z,95736.06
2022-10-05T15:04:07.536Z,95727.13
2022-10-05T15:06:39.987Z,95729.19
2022-10-05T15:09:34.748Z,95725.16
2022-10-05T15:12:04.125Z,95720.41
2022-10-05T15:14:34.950Z,95728.50
2022-10-05T15:17:05.180Z,95730.31
2022-10-05T15:19:48.941Z,95719.09
2022-10-05T15:22:29.594Z,95721.47
2022-10-05T15:25:05.707Z,95719.69
2022-10-05T15:27:46.052Z,95720.47
2022-10-05T15:30:18.095Z,95714.38
2022-10-05T15:33:01.097Z,95717.31
2022-10-05T15:36:00.443Z,95714.44
2022-10-05T15:38:32.996Z,95722.50
2022-10-05T15:41:11.096Z,95717.63
2022-10-05T15:43:48.535Z,95712.59
2022-10-05T15:46:19.373Z,95708.94
2022-10-05T15:48:55.303Z,95717.88
2022-10-05T15:51:37.102Z,95715.59
2022-10-05T15:54:30.991Z,95721.22
2022-10-05T15:57:04.812Z,95716.78
2022-10-05T15:59:42.583Z,95718.47
2022-10-05T16:02:20.623Z,95720.00
2022-10-05T16:05:02.403Z,95715.94
2022-10-05T16:07:58.733Z,95718.50
2022-10-05T16:10:27.902Z,95721.72
2022-10-05T16:13:10.506Z,95718.94
2022-10-05T16:15:43.042Z,95714.59
2022-10-05T16:18:43.039Z,95712.59
2022-10-05T16:21:24.410Z,95718.91
2022-10-05T16:24:10.629Z,95717.09
2022-10-05T16:26:56.929Z,95718.69
2022-10-05T16:29:38.883Z,95717.59
2022-10-05T16:32:11.189Z,95720.88
2022-10-05T16:35:01.750Z,95712.06
2022-10-05T16:37:39.525Z,95715.66
2022-10-05T16:40:16.615Z,95712.53
2022-10-05T16:42:56.183Z,95719.16
2022-10-05T16:45:47.764Z,95712.94
2022-10-05T16:48:25.254Z,95712.50
2022-10-05T16:51:13.890Z,95709.31
2022-10-05T16:53:45.314Z,95710.75
2022-10-05T16:56:17.574Z,95712.72
2022-10-05T16:59:00.996Z,95715.19
2022-10-05T17:01:48.558Z,95721.06
2022-10-05T17:04:27.935Z,95718.91
2022-10-05T17:07:22.544Z,95714.31
2022-10-05T17:10:16.708Z,95717.25
2022-10-05T17:12:53.984Z,95717.97
2022-10-05T17:15:33.584Z,95726.44
2022-10-05T17:18:29.315Z,95722.47
2022-10-05T17:21:05.456Z,95735.19
2022-10-05T17:23:45.054Z,95728.22
2022-10-05T17:26:40.985Z,95735.13
2022-10-05T17:29:18.220Z,95728.94
2022-10-05T17:32:36.133Z,95741.94
2022-10-05T17:35:22.095Z,95740.63
2022-10-05T17:38:18.091Z,95747.31
2022-10-05T17:41:15.715Z,95749.88
2022-10-05T17:44:32.669Z,95747.44
2022-10-05T17:47:03.984Z,95742.72
2022-10-05T17:50:09.744Z,95751.06
2022-10-05T17:52:58.775Z,95761.72
2022-10-05T17:55:45.248Z,95756.94
2022-10-05T17:58:59.152Z,95752.03
2022-10-05T18:01:30.368Z,95745.22
2022-10-05T18:04:33.584Z,95752.41
2022-10-05T18:07:04.528Z,95761.22
2022-10-05T18:09:50.544Z,95758.28
2022-10-05T18:12:40.442Z,95758.47
2022-10-05T18:15:47.120Z,95763.06
2022-10-05T18:18:48.288Z,95757.31
2022-10-05T18:21:35.817Z,95761.84
2022-10-05T18:24:46.006Z,95770.66
2022-10-05T18:27:34.266Z,95780.06
2022-10-05T18:30:18.489Z,95783.91
2022-10-05T18:33:20.276Z,95791.50
2022-10-05T18:36:01.528Z,95799.84
2022-10-05T18:38:43.725Z,95807.16
2022-10-05T18:41:22.605Z,95807.16
2022-10-05T18:44:00.491Z,95807.41
2022-10-05T18:46:39.574Z,95806.69
2022-10-05T18:49:20.035Z,95802.94
2022-10-05T18:51:53.512Z,95804.50
2022-10-05T18:54:36.492Z,95801.31
2022-10-05T18:57:39.730Z,95812.44
2022-10-05T19:00:14.847Z,95814.59
2022-10-05T19:02:48.373Z,95824.50
2022-10-05T19:05:47.934Z,95825.00
2022-10-05T19:08:28.582Z,95827.19
2022-10-05T19:11:09.275Z,95819.38
2022-10-05T19:13:47.789Z,95823.06
2022-10-05T19:16:28.183Z,95820.28
2022-10-05T19:19:06.523Z,95825.22
2022-10-05T19:21:45.377Z,95831.63
2022-10-05T19:24:26.676Z,95831.84
2022-10-05T19:27:07.261Z,95832.03
2022-10-05T19:29:50.112Z,95838.16
2022-10-05T19:32:26.964Z,95836.53
2022-10-05T19:35:10.037Z,95843.84
2022-10-05T19:37:47.569Z,95837.09
2022-10-05T19:40:21.356Z,95842.44
2022-10-05T19:43:02.413Z,95857.69
2022-10-05T19:45:32.919Z,95858.66
2022-10-05T19:48:15.948Z,95859.84
2022-10-05T19:50:54.744Z,95860.41
2022-10-05T19:53:27.307Z,95861.56
2022-10-05T19:55:55.519Z,95865.19
2022-10-05T19:58:26.820Z,95863.97
2022-10-05T20:01:00.511Z,95870.38
2022-10-05T20:03:32.642Z,95883.06
2022-10-05T20:06:02.335Z,95877.91
2022-10-05T20:08:39.474Z,95882.78
2022-10-05T20:11:15.573Z,95883.00
2022-10-05T20:13:47.284Z,95888.78
2022-10-05T20:16:46.946Z,95891.38
2022-10-05T20:19:47.561Z,95892.81
2022-10-05T20:22:33.087Z,95902.78
2022-10-05T20:25:03.199Z,95901.41
2022-10-05T20:27:45.141Z,95909.13
2022-10-05T20:30:16.965Z,95907.53
2022-10-05T20:32:47.986Z,95912.69
2022-10-05T20:35:16.799Z,95923.44
2022-10-05T20:37:47.167Z,95919.69
2022-10-05T20:40:15.504Z,95922.66
2022-10-05T20:42:43.765Z,95928.41
2022-10-05T20:45:17.131Z,95920.88
2022-10-05T20:47:47.825Z,95931.00
2022-10-05T20:50:16.171Z,95938.97
2022-10-05T20:52:44.237Z,95934.00
2022-10-05T20:55:13.017Z,95938.16
2022-10-05T20:57:42.567Z,95945.31
2022-10-05T21:00:11.913Z,95944.53
2022-10-05T21:02:41.123Z,95953.47
2022-10-05T21:05:10.438Z,95961.38
2022-10-05T21:07:38.455Z,95951.84
2022-10-05T21:10:07.418Z,95951.25
2022-10-05T21:12:35.435Z,95952.84
2022-10-05T21:15:04.643Z,95953.03
2022-10-05T21:17:35.161Z,95955.19
2022-10-05T21:20:05.091Z,95959.13
2022-10-05T21:22:35.592Z,95959.50
2022-10-05T21:25:03.585Z,95971.56
2022-10-05T21:27:33.962Z,95971.38
2022-10-05T21:30:01.772Z,95970.34
2022-10-05T21:32:29.549Z,95968.13
2022-10-05T21:35:00.081Z,95959.56
2022-10-05T21:37:29.222Z,95974.66
2022-10-05T21:39:57.300Z,95974.03
2022-10-05T21:42:27.289Z,95978.22
2022-10-05T21:44:55.041Z,95971.03
2022-10-05T21:47:26.702Z,95986.50
2022-10-05T21:49:55.104Z,95985.88
2022-10-05T21:52:23.314Z,95988.28
2022-10-05T21:54:52.667Z,95993.25
2022-10-05T21:57:20.412Z,95987.47
2022-10-05T21:59:48.371Z,95992.81
2022-10-05T22:02:16.081Z,95998.78
2022-10-05T22:04:43.883Z,96002.72
2022-10-05T22:07:19.235Z,96003.53
2022-10-05T22:09:48.393Z,96002.56
2022-10-05T22:12:19.717Z,96005.91
2022-10-05T22:14:47.526Z,96017.56
2022-10-05T22:17:24.363Z,96007.09
2022-10-05T22:19:52.414Z,96004.00
2022-10-05T22:22:20.143Z,96003.97
2022-10-05T22:24:48.015Z,96001.91
2022-10-05T22:27:17.737Z,96004.41
2022-10-05T22:29:45.654Z,96010.53
2022-10-05T22:32:13.502Z,96003.63
2022-10-05T22:34:41.252Z,96005.03
2022-10-05T22:37:12.960Z,96000.88
2022-10-05T22:39:41.288Z,96015.09
2022-10-05T22:42:09.818Z,96008.38
2022-10-05T22:44:39.000Z,96014.88
2022-10-05T22:47:06.808Z,96008.81
2022-10-05T22:49:34.710Z,96016.84
2022-10-05T22:52:02.436Z,96026.00
2022-10-05T22:54:32.528Z,96015.75
2022-10-05T22:57:03.100Z,96025.13
2022-10-05T22:59:31.099Z,96027.34
2022-10-05T23:02:00.303Z,96027.69
2022-10-05T23:04:28.180Z,96028.97
2022-10-05T23:06:55.970Z,96034.41
2022-10-05T23:09:23.702Z,96049.75
2022-10-05T23:11:54.154Z,96053.56
2022-10-05T23:14:22.836Z,96059.94
2022-10-05T23:16:50.866Z,96064.31
2022-10-05T23:19:20.045Z,96056.78
2022-10-05T23:21:47.787Z,96065.91
2022-10-05T23:24:15.656Z,96069.47
2022-10-05T23:26:43.493Z,96074.84
2022-10-05T23:29:11.540Z,96074.81
2022-10-05T23:31:39.318Z,96077.59
2022-10-05T23:34:07.055Z,96083.34
2022-10-05T23:36:36.188Z,96081.34
2022-10-05T23:39:03.998Z,96085.91
2022-10-05T23:41:32.137Z,96087.50
2022-10-05T23:43:59.835Z,96089.50
2022-10-05T23:46:27.746Z,96092.25
2022-10-05T23:48:55.548Z,96096.38
2022-10-05T23:51:23.413Z,96105.25
2022-10-05T23:53:52.480Z,96097.69
2022-10-05T23:56:20.175Z,96100.66
2022-10-05T23:58:48.056Z,96104.75
